Time;durP1;ratioP1;P1;durP2;ratioP2;P2;SDS_P1;SDS_P2;PMS_P1;PMS_P2;Temp;Humidity;BMP_temperature;BMP_pressure;BME280_temperature;BME280_humidity;BME280_pressure;Samples;Min_cycle;Max_cycle;Signal;HPM_P1;HPM_P2
2021/09/02 00:01:53;;;;;;;;;;;;;;;21.19;26.54;98618.84;5076320;28;19930;-74
2021/09/02 00:04:19;;;;;;;;;;;;;;;21.13;26.53;98623.22;5092911;28;19924;-73
2021/09/02 00:06:45;;;;;;;;;;;;;;;21.19;26.33;98621.56;5076356;28;19924;-75
2021/09/02 00:09:10;;;;;;;;;;;;;;;21.25;26.37;98616.16;5060035;28;19924;-73
2021/09/02 00:11:36;;;;;;;;;;;;;;;21.25;26.59;98609.84;5076061;28;20299;-72
2021/09/02 00:14:02;;;;;;;;;;;;;;;21.31;26.25;98609.03;5076176;28;20406;-75
2021/09/02 00:16:27;;;;;;;;;;;;;;;21.31;26.23;98606.31;5076153;28;20015;-75
2021/09/02 00:18:53;;;;;;;;;;;;;;;21.38;26.35;98604.44;5058868;28;19935;-73
2021/09/02 00:21:19;;;;;;;;;;;;;;;21.40;26.15;98606.94;5075940;28;19924;-76
2021/09/02 00:23:44;;;;;;;;;;;;;;;21.39;25.86;98597.97;5076279;28;20338;-74
2021/09/02 00:26:10;;;;;;;;;;;;;;;21.37;26.14;98594.63;5076114;28;20290;-75
2021/09/02 00:28:36;;;;;;;;;;;;;;;21.43;26.14;98593.78;5092818;28;20411;-75
2021/09/02 00:31:02;;;;;;;;;;;;;;;21.38;25.78;98584.59;5075748;28;19923;-75
2021/09/02 00:33:32;;;;;;;;;;;;;;;21.44;25.57;98592.75;5093018;28;20056;-75
2021/09/02 00:35:58;;;;;;;;;;;;;;;21.48;25.51;98580.41;5059527;28;19959;-75
2021/09/02 00:38:24;;;;;;;;;;;;;;;21.57;25.37;98592.72;5092917;28;19928;-74
2021/09/02 00:40:50;;;;;;;;;;;;;;;21.63;25.28;98590.22;5076159;28;19935;-75
2021/09/02 00:43:16;;;;;;;;;;;;;;;21.70;25.02;98588.28;5075183;28;19924;-75
2021/09/02 00:45:41;;;;;;;;;;;;;;;21.75;24.84;98591.22;5093174;28;19931;-75
2021/09/02 00:48:07;;;;;;;;;;;;;;;21.81;25.00;98587.63;5075356;28;20334;-75
2021/09/02 00:50:33;;;;;;;;;;;;;;;21.81;24.42;98584.91;5075693;28;19924;-75
2021/09/02 00:52:59;;;;;;;;;;;;;;;21.81;24.79;98590.34;5075812;28;19931;-75
2021/09/02 00:55:25;;;;;;;;;;;;;;;21.83;24.54;98610.84;5075774;28;19924;-75
2021/09/02 00:57:51;;;;;;;;;;;;;;;21.76;24.31;98599.16;5075423;28;20375;-75
2021/09/02 01:00:16;;;;;;;;;;;;;;;21.79;24.29;98606.06;5058832;28;19924;-74
2021/09/02 01:02:42;;;;;;;;;;;;;;;21.82;24.29;98600.19;5058627;28;19964;-75
2021/09/02 01:05:08;;;;;;;;;;;;;;;21.82;24.46;98594.75;5075453;28;19930;-75
2021/09/02 01:07:34;;;;;;;;;;;;;;;21.87;24.50;98597.66;5075308;28;20357;-75
2021/09/02 01:10:02;;;;;;;;;;;;;;;21.81;24.04;98595.78;5075810;28;20371;-75
2021/09/02 01:12:35;;;;;;;;;;;;;;;21.77;24.03;98583.66;5092140;28;20391;-75
2021/09/02 01:15:03;;;;;;;;;;;;;;;21.79;24.23;98589.75;5075375;28;20374;-75
2021/09/02 01:17:30;;;;;;;;;;;;;;;21.78;24.16;98582.63;5075428;28;19946;-75
2021/09/02 01:19:56;;;;;;;;;;;;;;;21.76;24.36;98580.13;5058785;28;19947;-75
2021/09/02 01:22:25;;;;;;;;;;;;;;;21.67;24.23;98580.56;5058708;28;20374;-75
2021/09/02 01:24:51;;;;;;;;;;;;;;;21.66;24.22;98581.59;5075190;28;19924;-74
2021/09/02 01:27:20;;;;;;;;;;;;;;;21.66;24.40;98578.88;5075353;28;19974;-76
2021/09/02 01:29:55;;;;;;;;;;;;;;;21.61;24.44;98578.69;5093469;28;19931;-76
2021/09/02 01:32:21;;;;;;;;;;;;;;;21.58;24.39;98572.63;5059171;28;19924;-75
2021/09/02 01:34:47;;;;;;;;;;;;;;;21.55;24.38;98577.66;5075172;28;19973;-75
2021/09/02 01:37:12;;;;;;;;;;;;;;;21.50;24.43;98570.13;5075438;28;19932;-74
2021/09/02 01:39:38;;;;;;;;;;;;;;;21.52;24.62;98572.66;5075047;28;19924;-75
2021/09/02 01:42:04;;;;;;;;;;;;;;;21.49;24.40;98570.34;5092993;28;20374;-74
2021/09/02 01:44:30;;;;;;;;;;;;;;;21.50;24.53;98575.56;5075626;28;19928;-75
2021/09/02 01:46:55;;;;;;;;;;;;;;;21.44;24.27;98572.84;5058158;28;19924;-76
2021/09/02 01:49:21;;;;;;;;;;;;;;;21.43;24.45;98568.47;5074910;28;20026;-75
2021/09/02 01:51:47;;;;;;;;;;;;;;;21.41;24.22;98571.41;5075370;28;19931;-76
2021/09/02 01:54:13;;;;;;;;;;;;;;;21.43;24.19;98572.00;5074972;28;19924;-74
2021/09/02 01:56:38;;;;;;;;;;;;;;;21.46;24.18;98568.88;5061562;28;19924;-75
2021/09/02 01:59:04;;;;;;;;;;;;;;;;;;5079566;28;20440;-75
2021/09/02 02:01:30;;;;;;;;;;;;;;;21.49;24.17;98564.91;5098899;28;19935;-75
2021/09/02 02:03:55;;;;;;;;;;;;;;;21.49;24.05;98568.47;5064134;28;19924;-75
2021/09/02 02:06:21;;;;;;;;;;;;;;;21.51;24.18;98563.66;5080255;28;20396;-75
2021/09/02 02:08:47;;;;;;;;;;;;;;;21.49;24.17;98562.19;5079955;28;20025;-75
2021/09/02 02:11:13;;;;;;;;;;;;;;;21.48;24.13;98558.63;5062937;28;19924;-75
2021/09/02 02:13:39;;;;;;;;;;;;;;;21.52;24.19;98562.59;5062621;28;20375;-75
2021/09/02 02:16:04;;;;;;;;;;;;;;;21.53;24.13;98552.56;5045480;28;20313;-75
2021/09/02 02:18:30;;;;;;;;;;;;;;;21.53;24.10;98553.41;5078546;28;20310;-77
2021/09/02 02:20:56;;;;;;;;;;;;;;;21.57;23.93;98559.25;5062311;28;19924;-77
2021/09/02 02:23:22;;;;;;;;;;;;;;;21.63;24.09;98554.84;5079083;28;19989;-76
2021/09/02 02:25:48;;;;;;;;;;;;;;;21.60;24.02;98542.50;5045723;28;19930;-77
2021/09/02 02:28:14;;;;;;;;;;;;;;;21.67;24.22;98545.22;5045540;28;20259;-78
2021/09/02 02:30:39;;;;;;;;;;;;;;;21.68;23.86;98538.72;5062065;28;19974;-75
2021/09/02 02:33:05;;;;;;;;;;;;;;;21.66;23.81;98535.38;5061046;28;20394;-78
2021/09/02 02:35:39;;;;;;;;;;;;;;;21.70;23.84;98542.91;5062153;28;19928;-77
2021/09/02 02:38:05;;;;;;;;;;;;;;;21.78;23.89;98539.13;5057827;28;19929;-75
2021/09/02 02:40:32;;;;;;;;;;;;;;;21.86;23.72;98535.31;5074152;28;19925;-76
2021/09/02 02:42:58;;;;;;;;;;;;;;;21.88;23.74;98523.16;5074211;28;19928;-76
2021/09/02 02:45:24;;;;;;;;;;;;;;;21.88;23.83;98523.16;5090744;28;20351;-74
2021/09/02 02:47:50;;;;;;;;;;;;;;;21.87;23.86;98529.66;5057817;28;19929;-76
2021/09/02 02:50:15;;;;;;;;;;;;;;;21.91;23.87;98522.72;5074399;28;20402;-75
2021/09/02 02:52:42;;;;;;;;;;;;;;;22.02;23.73;98532.94;5057399;28;20310;-74
2021/09/02 02:55:08;;;;;;;;;;;;;;;22.18;23.81;98528.06;5056805;28;19970;-78
2021/09/02 02:57:34;;;;;;;;;;;;;;;22.38;23.56;98517.06;5075969;28;20386;-77
2021/09/02 02:59:59;;;;;;;;;;;;;;;22.55;23.48;98507.31;5046293;28;19924;-76
2021/09/02 03:02:25;;;;;;;;;;;;;;;22.67;23.12;98511.00;5040161;28;19932;-78
2021/09/02 03:04:51;;;;;;;;;;;;;;;22.73;23.02;98520.19;5024173;28;19967;-75
2021/09/02 03:07:16;;;;;;;;;;;;;;;22.91;23.11;98512.13;5056370;28;20423;-76
2021/09/02 03:09:42;;;;;;;;;;;;;;;22.95;22.92;98502.44;5024502;28;19964;-75
2021/09/02 03:12:08;;;;;;;;;;;;;;;22.95;22.70;98509.78;5057189;28;20447;-75
2021/09/02 03:14:34;;;;;;;;;;;;;;;22.94;22.65;98510.81;5057699;28;19970;-76
2021/09/02 03:17:01;;;;;;;;;;;;;;;22.89;22.53;98514.19;5041555;28;20372;-74
2021/09/02 03:19:26;;;;;;;;;;;;;;;22.89;22.50;98521.53;5073908;28;19935;-77
2021/09/02 03:21:52;;;;;;;;;;;;;;;23.04;22.46;98516.59;5073781;28;19959;-73
2021/09/02 03:24:18;;;;;;;;;;;;;;;23.08;22.12;98517.00;5073641;28;19924;-74
2021/09/02 03:26:43;;;;;;;;;;;;;;;23.33;22.15;98519.72;5057217;28;19924;-77
2021/09/02 03:29:09;;;;;;;;;;;;;;;23.46;21.97;98522.28;5024064;28;20042;-77
2021/09/02 03:31:36;;;;;;;;;;;;;;;23.60;21.88;98528.44;5041158;28;19931;-78
2021/09/02 03:34:02;;;;;;;;;;;;;;;23.66;21.47;98520.22;5040757;28;19924;-77
2021/09/02 03:36:28;;;;;;;;;;;;;;;23.77;21.27;98526.81;5040562;28;19924;-77
2021/09/02 03:38:54;;;;;;;;;;;;;;;23.88;21.28;98517.88;5040017;28;19968;-76
2021/09/02 03:41:20;;;;;;;;;;;;;;;24.04;21.30;98515.56;5040447;28;20379;-76
2021/09/02 03:43:46;;;;;;;;;;;;;;;24.11;20.72;98516.28;5056788;28;19939;-76
2021/09/02 03:46:11;;;;;;;;;;;;;;;24.21;20.95;98525.59;5040262;28;20003;-76
2021/09/02 03:48:37;;;;;;;;;;;;;;;24.43;20.55;98525.16;5056869;28;19925;-79
2021/09/02 03:51:03;;;;;;;;;;;;;;;24.61;20.25;98533.28;5039628;28;19930;-77
2021/09/02 03:53:29;;;;;;;;;;;;;;;24.76;20.29;98521.09;5040003;28;19924;-78
2021/09/02 03:55:55;;;;;;;;;;;;;;;24.83;20.03;98525.38;5024676;28;19931;-80
2021/09/02 03:58:21;;;;;;;;;;;;;;;24.92;19.92;98517.66;5073465;28;19975;-79
2021/09/02 04:00:47;;;;;;;;;;;;;;;24.98;19.78;98521.38;5040422;28;20287;-80
2021/09/02 04:03:13;;;;;;;;;;;;;;;24.96;19.73;98529.78;5039917;28;19925;-77
2021/09/02 04:05:39;;;;;;;;;;;;;;;24.94;19.76;98529.22;5039664;28;20428;-76
2021/09/02 04:08:04;;;;;;;;;;;;;;;24.96;19.56;98525.16;5056922;28;19928;-78
2021/09/02 04:10:30;;;;;;;;;;;;;;;25.09;19.58;98543.25;5056383;28;19929;-78
2021/09/02 04:12:56;;;;;;;;;;;;;;;25.11;19.80;98532.09;5073644;28;19931;-77
2021/09/02 04:15:22;;;;;;;;;;;;;;;25.09;19.58;98539.69;5056301;28;19931;-77
2021/09/02 04:17:48;;;;;;;;;;;;;;;25.11;19.65;98538.41;5073991;28;19924;-78
2021/09/02 04:20:14;;;;;;;;;;;;;;;25.03;19.67;98535.16;5072526;28;19931;-78
2021/09/02 04:22:40;;;;;;;;;;;;;;;25.12;19.60;98552.91;5057057;28;19924;-76
2021/09/02 04:25:06;;;;;;;;;;;;;;;25.18;19.80;98528.19;5072554;28;19924;-77
2021/09/02 04:27:32;;;;;;;;;;;;;;;25.25;19.78;98538.19;5039220;28;20337;-77
2021/09/02 04:29:57;;;;;;;;;;;;;;;25.36;19.74;98529.16;5074020;28;19928;-77
2021/09/02 04:32:23;;;;;;;;;;;;;;;25.50;19.62;98535.19;5073791;28;19970;-78
2021/09/02 04:34:49;;;;;;;;;;;;;;;25.54;19.40;98519.94;5072222;28;19932;-78
2021/09/02 04:37:14;;;;;;;;;;;;;;;25.66;19.47;98529.81;5072934;28;20059;-77
2021/09/02 04:39:40;;;;;;;;;;;;;;;25.77;19.15;98530.88;5055703;28;20028;-78
2021/09/02 04:42:06;;;;;;;;;;;;;;;25.95;19.11;98527.16;5055837;28;19924;-76
2021/09/02 04:44:32;;;;;;;;;;;;;;;26.05;18.90;98521.06;5072006;28;19932;-78
2021/09/02 04:46:57;;;;;;;;;;;;;;;26.30;18.61;98531.72;5055317;28;19928;-76
2021/09/02 04:49:23;;;;;;;;;;;;;;;26.60;18.77;98534.22;5074624;28;19924;-76
2021/09/02 04:51:49;;;;;;;;;;;;;;;26.90;18.18;98527.63;5072145;28;20307;-76
2021/09/02 04:54:15;;;;;;;;;;;;;;;27.12;18.07;98523.09;5070322;28;19931;-76
2021/09/02 04:56:40;;;;;;;;;;;;;;;27.17;18.02;98536.88;5041500;28;19928;-76
2021/09/02 04:59:06;;;;;;;;;;;;;;;27.19;17.48;98536.63;5022366;28;19924;-77
2021/09/02 05:01:32;;;;;;;;;;;;;;;27.04;17.97;98539.91;5022375;28;20387;-76
2021/09/02 05:03:58;;;;;;;;;;;;;;;26.97;17.85;98540.09;5071769;28;20000;-77
2021/09/02 05:06:23;;;;;;;;;;;;;;;27.11;17.68;98549.66;5038734;28;19925;-76
2021/09/02 05:08:49;;;;;;;;;;;;;;;26.99;17.83;98539.84;5055386;28;19924;-75
2021/09/02 05:11:15;;;;;;;;;;;;;;;26.80;18.00;98545.56;5073148;28;19925;-77
2021/09/02 05:13:40;;;;;;;;;;;;;;;26.79;18.02;98554.03;5055837;28;19951;-78
2021/09/02 05:16:06;;;;;;;;;;;;;;;27.15;17.75;98552.75;5055685;28;19928;-77
2021/09/02 05:18:32;;;;;;;;;;;;;;;27.14;17.49;98561.25;5072241;28;20314;-77
2021/09/02 05:20:58;;;;;;;;;;;;;;;26.96;17.59;98556.78;5022344;28;20019;-78
2021/09/02 05:23:24;;;;;;;;;;;;;;;26.83;17.86;98550.53;5055164;28;19929;-79
2021/09/02 05:25:49;;;;;;;;;;;;;;;26.67;17.97;98551.38;5072205;28;19925;-77
2021/09/02 05:28:15;;;;;;;;;;;;;;;26.59;18.06;98549.00;5071453;28;19924;-76
2021/09/02 05:30:41;;;;;;;;;;;;;;;26.75;18.21;98548.22;5040219;28;20005;-76
2021/09/02 05:33:07;;;;;;;;;;;;;;;26.72;18.03;98554.19;5042542;28;19924;-77
2021/09/02 05:35:33;;;;;;;;;;;;;;;26.80;18.08;98559.25;5076414;28;19931;-79
2021/09/02 05:37:59;;;;;;;;;;;;;;;26.84;17.89;98557.69;5022455;28;19929;-76
2021/09/02 05:40:24;;;;;;;;;;;;;;;26.99;18.21;98542.59;5055347;28;19964;-78
2021/09/02 05:42:50;;;;;;;;;;;;;;;27.01;17.80;98541.25;5022669;28;20388;-80
2021/09/02 05:45:16;;;;;;;;;;;;;;;27.18;18.12;98541.28;5072248;28;19925;-75
2021/09/02 05:47:42;;;;;;;;;;;;;;;27.25;18.06;98535.63;5055642;28;20430;-76
2021/09/02 05:50:08;;;;;;;;;;;;;;;27.35;18.13;98530.31;5056006;28;19929;-79
2021/09/02 05:52:34;;;;;;;;;;;;;;;27.64;18.08;98543.88;5072231;28;20441;-79
2021/09/02 05:54:59;;;;;;;;;;;;;;;27.48;17.74;98545.56;5055704;28;20036;-76
2021/09/02 05:57:25;;;;;;;;;;;;;;;27.40;17.69;98543.25;5038238;28;19994;-77
2021/09/02 05:59:51;;;;;;;;;;;;;;;27.39;17.74;98555.34;5038661;28;19984;-75
2021/09/02 06:02:17;;;;;;;;;;;;;;;27.38;17.89;98550.91;5038541;28;20418;-76
2021/09/02 06:04:43;;;;;;;;;;;;;;;27.47;17.85;98563.13;5054867;28;19925;-75
2021/09/02 06:07:08;;;;;;;;;;;;;;;27.47;17.79;98576.88;5022091;28;19925;-76
2021/09/02 06:09:34;;;;;;;;;;;;;;;27.42;17.46;98576.75;5065353;28;20011;-77
2021/09/02 06:12:00;;;;;;;;;;;;;;;27.56;17.61;98570.69;5074907;28;19986;-75
2021/09/02 06:14:26;;;;;;;;;;;;;;;27.66;17.49;98564.50;5058652;28;20019;-74
2021/09/02 06:16:52;;;;;;;;;;;;;;;27.55;17.58;98580.00;5069206;28;19932;-75
2021/09/02 06:19:17;;;;;;;;;;;;;;;27.72;17.71;98563.50;5055824;28;19924;-76
2021/09/02 06:21:43;;;;;;;;;;;;;;;27.92;17.24;98567.66;5054891;28;19975;-75
2021/09/02 06:24:09;;;;;;;;;;;;;;;27.79;17.09;98569.66;5071526;28;19972;-76
2021/09/02 06:26:35;;;;;;;;;;;;;;;27.87;17.17;98564.81;5054935;28;19936;-76
2021/09/02 06:29:01;;;;;;;;;;;;;;;28.04;17.48;98560.13;5054715;28;19941;-75
2021/09/02 06:31:26;;;;;;;;;;;;;;;27.94;17.08;98565.47;5054442;28;20020;-75
2021/09/02 06:33:52;;;;;;;;;;;;;;;27.94;17.18;98565.47;5021341;28;19974;-75
2021/09/02 06:36:20;;;;;;;;;;;;;;;27.86;17.03;98557.69;5056119;28;19925;-75
2021/09/02 06:38:46;;;;;;;;;;;;;;;27.71;17.33;98556.34;5059621;28;19983;-76
2021/09/02 06:41:11;;;;;;;;;;;;;;;27.73;17.28;98576.16;5062191;28;19925;-76
2021/09/02 06:43:37;;;;;;;;;;;;;;;27.71;17.42;98567.31;5078060;28;19931;-76
2021/09/02 06:46:03;;;;;;;;;;;;;;;27.56;17.48;98562.44;5060776;28;20403;-76
2021/09/02 06:48:29;;;;;;;;;;;;;;;27.68;17.39;98562.34;5044980;28;19924;-77
2021/09/02 06:50:55;;;;;;;;;;;;;;;27.80;17.52;98563.09;5062386;28;19932;-75
2021/09/02 06:53:22;;;;;;;;;;;;;;;27.71;17.38;98561.84;5059850;28;19926;-75
2021/09/02 06:55:48;;;;;;;;;;;;;;;27.60;17.47;98560.03;5081361;28;20030;-77
2021/09/02 06:58:13;;;;;;;;;;;;;;;27.55;17.67;98560.78;5066910;28;20025;-77
2021/09/02 07:00:39;;;;;;;;;;;;;;;27.43;18.08;98565.56;5058442;28;19924;-77
2021/09/02 07:03:05;;;;;;;;;;;;;;;27.30;18.23;98572.19;5057602;28;19930;-76
2021/09/02 07:05:30;;;;;;;;;;;;;;;27.19;18.49;98559.38;5074540;28;19935;-76
2021/09/02 07:08:12;;;;;;;;;;;;;;;27.21;18.88;98568.22;5060608;28;19935;-76
2021/09/02 07:10:38;;;;;;;;;;;;;;;27.19;18.82;98577.78;5075356;28;20039;-76
2021/09/02 07:13:04;;;;;;;;;;;;;;;27.04;19.18;98561.84;5024378;28;19974;-76
2021/09/02 07:15:29;;;;;;;;;;;;;;;26.95;19.22;98552.38;5057032;28;20410;-76
2021/09/02 07:17:55;;;;;;;;;;;;;;;26.91;19.45;98556.72;5074487;28;19924;-75
2021/09/02 07:20:21;;;;;;;;;;;;;;;26.65;20.80;98567.22;5057225;28;20379;-75
2021/09/02 07:22:46;;;;;;;;;;;;;;;26.61;21.25;98568.78;5074218;28;19928;-78
2021/09/02 07:25:12;;;;;;;;;;;;;;;26.71;21.28;98570.91;5040630;28;19931;-77
2021/09/02 07:27:38;;;;;;;;;;;;;;;26.82;21.30;98561.78;5073867;28;19924;-76
2021/09/02 07:30:04;;;;;;;;;;;;;;;26.99;20.96;98553.56;5056951;28;19943;-76
2021/09/02 07:32:30;;;;;;;;;;;;;;;27.14;20.54;98553.00;5040627;28;19932;-77
2021/09/02 07:34:56;;;;;;;;;;;;;;;27.32;20.18;98552.75;5040658;28;19924;-77
2021/09/02 07:37:22;;;;;;;;;;;;;;;27.44;20.08;98538.94;5040519;28;20307;-78
2021/09/02 07:39:48;;;;;;;;;;;;;;;27.92;19.83;98540.19;5057034;28;19925;-78
2021/09/02 07:42:14;;;;;;;;;;;;;;;28.04;19.95;98549.13;5056720;28;19940;-78
2021/09/02 07:44:39;;;;;;;;;;;;;;;28.37;19.93;98539.09;5023622;28;19925;-76
2021/09/02 07:47:06;;;;;;;;;;;;;;;28.62;19.93;98539.34;5056929;28;19971;-79
2021/09/02 07:49:32;;;;;;;;;;;;;;;29.12;19.40;98542.88;5038971;28;19950;-79
2021/09/02 07:51:58;;;;;;;;;;;;;;;29.36;19.57;98543.34;5039934;28;19928;-75
2021/09/02 07:54:23;;;;;;;;;;;;;;;29.88;19.00;98539.84;5054903;28;19924;-76
2021/09/02 07:56:49;;;;;;;;;;;;;;;29.90;19.33;98554.16;5039124;28;20019;-77
2021/09/02 07:59:16;;;;;;;;;;;;;;;29.96;19.57;98553.09;5022614;28;19924;-77
2021/09/02 08:01:42;;;;;;;;;;;;;;;29.93;19.54;98551.69;5023138;28;19928;-78
2021/09/02 08:04:07;;;;;;;;;;;;;;;29.95;19.69;98540.41;5039089;28;20023;-75
2021/09/02 08:06:33;;;;;;;;;;;;;;;30.25;19.46;98545.25;5055870;28;19963;-77
2021/09/02 08:08:59;;;;;;;;;;;;;;;30.59;18.98;98534.59;5038593;28;19924;-77
2021/09/02 08:11:27;;;;;;;;;;;;;;;30.66;19.34;98535.16;5022246;28;19995;-79
2021/09/02 08:13:54;;;;;;;;;;;;;;;30.67;19.15;98535.97;5039769;28;19924;-76
2021/09/02 08:16:21;;;;;;;;;;;;;;;30.56;19.45;98537.06;5072096;28;19970;-77
2021/09/02 08:18:47;;;;;;;;;;;;;;;30.84;19.30;98544.03;5038880;28;20307;-77
2021/09/02 08:21:13;;;;;;;;;;;;;;;30.87;18.98;98535.19;5038798;28;19924;-79
2021/09/02 08:23:38;;;;;;;;;;;;;;;30.59;18.77;98542.88;5072685;28;19924;-76
2021/09/02 08:26:04;;;;;;;;;;;;;;;30.67;18.44;98547.03;5078305;28;19931;-79
2021/09/02 08:28:30;;;;;;;;;;;;;;;30.53;18.63;98540.38;5068387;28;19950;-78
2021/09/02 08:30:56;;;;;;;;;;;;;;;30.56;18.13;98532.38;5075345;28;20407;-77
2021/09/02 08:33:23;;;;;;;;;;;;;;;30.49;17.94;98540.06;5075137;28;19928;-77
2021/09/02 08:35:51;;;;;;;;;;;;;;;30.57;17.38;98545.06;5058684;28;20011;-79
2021/09/02 08:38:17;;;;;;;;;;;;;;;30.45;16.90;98550.00;5075068;28;19928;-77
2021/09/02 08:40:43;;;;;;;;;;;;;;;30.39;17.00;98540.91;5091812;28;19924;-78
2021/09/02 08:43:09;;;;;;;;;;;;;;;30.54;17.23;98537.34;5058539;28;19931;-76
2021/09/02 08:45:35;;;;;;;;;;;;;;;30.51;17.53;98537.88;5074760;28;20342;-74
2021/09/02 08:48:00;;;;;;;;;;;;;;;30.61;17.53;98542.59;5092842;28;19978;-75
2021/09/02 08:50:27;;;;;;;;;;;;;;;31.25;17.41;98530.22;5091802;28;19931;-74
2021/09/02 08:52:52;;;;;;;;;;;;;;;31.43;16.98;98536.03;5091294;28;19924;-76
2021/09/02 08:55:18;;;;;;;;;;;;;;;31.74;17.20;98521.31;5074278;28;19969;-76
2021/09/02 08:57:46;;;;;;;;;;;;;;;31.92;16.48;98531.81;5068442;28;19924;-76
2021/09/02 09:00:12;;;;;;;;;;;;;;;32.00;16.61;98533.97;5060820;28;19947;-77
2021/09/02 09:02:39;;;;;;;;;;;;;;;31.85;16.70;98532.09;5038393;28;20055;-75
2021/09/02 09:05:06;;;;;;;;;;;;;;;31.34;15.29;98534.97;5054191;28;19924;-76
2021/09/02 09:07:33;;;;;;;;;;;;;;;30.87;15.44;98529.69;5037413;28;19972;-76
2021/09/02 09:09:59;;;;;;;;;;;;;;;30.52;15.84;98534.03;5054444;28;19932;-74
2021/09/02 09:12:34;;;;;;;;;;;;;;;30.39;16.01;98545.56;5071634;28;19924;-75
2021/09/02 09:15:00;;;;;;;;;;;;;;;30.24;16.44;98538.91;5054351;28;19974;-76
2021/09/02 09:17:26;;;;;;;;;;;;;;;29.94;16.35;98527.72;5021677;28;19924;-75
2021/09/02 09:19:52;;;;;;;;;;;;;;;29.87;16.61;98527.97;5071564;28;19925;-75
2021/09/02 09:22:25;;;;;;;;;;;;;;;29.91;17.56;98517.25;5071494;28;19925;-76
2021/09/02 09:24:55;;;;;;;;;;;;;;;29.92;17.97;98514.22;5055190;28;19928;-75
2021/09/02 09:27:21;;;;;;;;;;;;;;;30.09;17.00;98516.78;5072347;28;19934;-77
2021/09/02 09:30:06;;;;;;;;;;;;;;;30.45;16.46;98516.91;5081980;28;19931;-76
2021/09/02 09:32:36;;;;;;;;;;;;;;;30.65;15.84;98514.16;5054989;28;19924;-77
2021/09/02 09:35:02;;;;;;;;;;;;;;;30.41;15.69;98508.34;5054600;28;19964;-78
2021/09/02 09:37:28;;;;;;;;;;;;;;;30.52;15.73;98503.69;5038945;28;19994;-76
2021/09/02 09:40:07;;;;;;;;;;;;;;;30.65;15.11;98500.38;5041641;28;19924;-77
2021/09/02 09:42:32;;;;;;;;;;;;;;;30.62;15.38;98503.72;5058674;28;19931;-76
2021/09/02 09:44:58;;;;;;;;;;;;;;;30.45;15.65;98508.63;5058396;28;20018;-77
2021/09/02 09:47:24;;;;;;;;;;;;;;;30.33;16.15;98497.84;5043909;28;19985;-77
2021/09/02 09:49:54;;;;;;;;;;;;;;;30.17;16.52;98494.25;5067355;28;19924;-78
2021/09/02 09:52:20;;;;;;;;;;;;;;;30.14;17.02;98494.75;5060754;28;19930;-78
2021/09/02 09:54:46;;;;;;;;;;;;;;;30.20;16.95;98488.19;5067251;28;19976;-77
2021/09/02 09:57:12;;;;;;;;;;;;;;;30.06;17.15;98488.94;5058170;28;20386;-77
2021/09/02 09:59:39;;;;;;;;;;;;;;;30.01;16.88;98495.22;5074963;28;19930;-77
2021/09/02 10:02:04;;;;;;;;;;;;;;;29.74;17.39;98493.47;5041745;28;20019;-76
2021/09/02 10:04:31;;;;;;;;;;;;;;;29.74;17.38;98490.72;5058144;28;20023;-77
2021/09/02 10:06:56;;;;;;;;;;;;;;;29.75;17.44;98481.38;5074897;28;19924;-76
2021/09/02 10:09:22;;;;;;;;;;;;;;;29.83;17.32;98481.97;5057920;28;19924;-77
2021/09/02 10:11:48;;;;;;;;;;;;;;;29.73;16.82;98489.06;5058049;28;19930;-77
2021/09/02 10:14:13;;;;;;;;;;;;;;;29.63;16.73;98469.72;5074614;28;19924;-76
2021/09/02 10:16:39;;;;;;;;;;;;;;;29.58;16.79;98479.91;5059309;28;19969;-76
2021/09/02 10:19:05;;;;;;;;;;;;;;;29.41;16.65;98480.91;5044559;28;19924;-75
2021/09/02 10:21:30;;;;;;;;;;;;;;;29.42;16.63;98493.56;5061409;28;19928;-76
2021/09/02 10:24:16;;;;;;;;;;;;;;;29.27;16.73;98485.19;5050357;28;19923;-77
2021/09/02 10:26:42;;;;;;;;;;;;;;;29.09;16.57;98486.44;5064467;28;20291;-75
2021/09/02 10:29:26;;;;;;;;;;;;;;;28.94;16.76;98494.56;5061145;28;19981;-76
2021/09/02 10:31:52;;;;;;;;;;;;;;;28.87;16.96;98491.19;5061129;28;19931;-76
2021/09/02 10:34:28;;;;;;;;;;;;;;;28.77;17.00;98487.28;5077789;28;20355;-76
2021/09/02 10:36:53;;;;;;;;;;;;;;;28.77;17.13;98490.03;5061323;28;20038;-76
2021/09/02 10:39:29;;;;;;;;;;;;;;;28.77;17.92;98503.78;5077885;28;20026;-76
2021/09/02 10:41:55;;;;;;;;;;;;;;;28.52;18.69;98484.28;5077912;28;19924;-76
2021/09/02 10:44:21;;;;;;;;;;;;;;;28.35;19.28;98484.34;5077455;28;20482;-76
2021/09/02 10:46:51;;;;;;;;;;;;;;;28.27;20.52;98482.91;5044214;28;19947;-75
2021/09/02 10:49:26;;;;;;;;;;;;;;;28.11;21.54;98496.75;5044429;28;19970;-77
2021/09/02 10:52:12;;;;;;;;;;;;;;;27.89;21.65;98503.06;5078077;28;19931;-77
2021/09/02 10:54:38;;;;;;;;;;;;;;;27.86;21.69;98500.81;5074922;28;19924;-76
2021/09/02 10:57:07;;;;;;;;;;;;;;;27.95;21.30;98496.56;5079121;28;19931;-76
2021/09/02 10:59:36;;;;;;;;;;;;;;;27.95;21.13;98491.06;5047528;28;19975;-79
2021/09/02 11:02:02;;;;;;;;;;;;;;;28.06;21.15;98492.03;5097438;28;19924;-78
2021/09/02 11:04:28;;;;;;;;;;;;;;;28.48;20.70;98469.41;5080418;28;19931;-78
2021/09/02 11:06:54;;;;;;;;;;;;;;;29.04;20.35;98469.91;5080318;28;19962;-78
2021/09/02 11:09:48;;;;;;;;;;;;;;;29.29;19.93;98467.31;5081460;28;19927;-77
2021/09/02 11:12:16;;;;;;;;;;;;;;;29.20;19.80;98473.59;5095472;28;20037;-78
2021/09/02 11:14:42;;;;;;;;;;;;;;;29.12;19.91;98477.66;5064268;28;19931;-77
2021/09/02 11:17:08;;;;;;;;;;;;;;;29.08;20.01;98476.53;5063880;28;19931;-78
2021/09/02 11:19:34;;;;;;;;;;;;;;;29.06;20.00;98484.22;5063599;28;19923;-78
2021/09/02 11:22:13;;;;;;;;;;;;;;;28.95;19.77;98487.94;5063946;28;19935;-78
2021/09/02 11:24:40;;;;;;;;;;;;;;;28.86;19.80;98478.53;5080375;28;19923;-78
2021/09/02 11:27:06;;;;;;;;;;;;;;;28.87;19.71;98474.69;5079762;28;19924;-78
2021/09/02 11:29:32;;;;;;;;;;;;;;;28.69;19.86;98476.72;5079731;28;20441;-78
2021/09/02 11:32:02;;;;;;;;;;;;;;;28.67;19.59;98462.44;5081484;28;19935;-78
2021/09/02 11:34:28;;;;;;;;;;;;;;;28.52;19.74;98462.28;5064469;28;19923;-79
2021/09/02 11:36:54;;;;;;;;;;;;;;;28.66;19.60;98451.66;5064721;28;20026;-79
2021/09/02 11:39:20;;;;;;;;;;;;;;;28.69;19.57;98442.91;5060351;28;20358;-76
2021/09/02 11:41:45;;;;;;;;;;;;;;;28.84;19.34;98450.44;5059888;28;19934;-80
2021/09/02 11:44:18;;;;;;;;;;;;;;;28.91;19.29;98437.31;5076509;28;20027;-79
2021/09/02 11:46:44;;;;;;;;;;;;;;;28.94;19.07;98447.78;5093184;28;19924;-79
2021/09/02 11:49:14;;;;;;;;;;;;;;;28.78;19.08;98439.41;5076900;28;19923;-80
2021/09/02 11:51:41;;;;;;;;;;;;;;;28.89;19.01;98445.00;5059668;28;20352;-78
2021/09/02 11:54:09;;;;;;;;;;;;;;;28.92;18.86;98436.19;5059737;28;19931;-78
2021/09/02 11:56:34;;;;;;;;;;;;;;;28.89;18.69;98443.09;5076583;28;19992;-79
2021/09/02 11:59:01;;;;;;;;;;;;;;;28.77;18.64;98440.53;5092922;28;19924;-78
2021/09/02 12:01:27;;;;;;;;;;;;;;;28.71;18.21;98449.00;5076122;28;20302;-78
2021/09/02 12:03:53;;;;;;;;;;;;;;;28.64;18.65;98442.88;5075823;28;19924;-78
2021/09/02 12:06:23;;;;;;;;;;;;;;;28.66;18.45;98452.53;5092876;28;19938;-79
2021/09/02 12:08:49;;;;;;;;;;;;;;;28.50;18.17;98447.97;5075911;28;19924;-78
2021/09/02 12:11:18;;;;;;;;;;;;;;;28.33;18.16;98448.88;5059213;28;19930;-78
2021/09/02 12:13:45;;;;;;;;;;;;;;;28.30;18.20;98437.59;5060123;28;19977;-79
2021/09/02 12:16:10;;;;;;;;;;;;;;;28.19;18.34;98450.38;5059113;28;19932;-78
2021/09/02 12:18:37;;;;;;;;;;;;;;;28.06;18.34;98437.06;5076097;28;19924;-78
2021/09/02 12:21:09;;;;;;;;;;;;;;;28.08;18.49;98440.38;5058924;28;19974;-77
2021/09/02 12:23:42;;;;;;;;;;;;;;;28.09;18.29;98425.53;5092407;28;19931;-77
2021/09/02 12:26:08;;;;;;;;;;;;;;;28.07;18.43;98433.22;5058662;28;19924;-79
2021/09/02 12:28:35;;;;;;;;;;;;;;;28.07;18.57;98439.56;5075512;28;19930;-79
2021/09/02 12:31:16;;;;;;;;;;;;;;;28.04;18.51;98433.75;5058763;28;19947;-79
2021/09/02 12:34:01;;;;;;;;;;;;;;;27.99;18.65;98425.47;5092263;28;20336;-77
2021/09/02 12:36:27;;;;;;;;;;;;;;;28.07;18.63;98438.72;5059298;28;19981;-79
2021/09/02 12:38:54;;;;;;;;;;;;;;;27.98;18.87;98427.38;5058751;28;20295;-78
2021/09/02 12:41:20;;;;;;;;;;;;;;;27.93;18.81;98431.97;5058783;28;19977;-79
2021/09/02 12:44:01;;;;;;;;;;;;;;;27.87;19.08;98433.00;5075491;28;19924;-79
2021/09/02 12:46:27;;;;;;;;;;;;;;;27.88;18.99;98429.19;5058401;28;20000;-80